createdAt,value
2018-07-11T00:01:31.072Z,99.90
2018-07-11T00:04:00.697Z,99.90
2018-07-11T00:06:29.880Z,99.90
2018-07-11T00:08:59.048Z,99.90
2018-07-11T00:11:28.678Z,99.90
2018-07-11T00:13:57.867Z,99.90
2018-07-11T00:16:27.056Z,99.90
2018-07-11T00:18:56.512Z,99.90
2018-07-11T00:21:25.760Z,99.90
2018-07-11T00:23:55.007Z,99.90
2018-07-11T00:26:24.804Z,99.90
2018-07-11T00:28:54.092Z,99.90
2018-07-11T00:31:23.292Z,99.90
2018-07-11T00:33:52.788Z,99.90
2018-07-11T00:36:22.084Z,99.90
2018-07-11T00:38:51.284Z,99.90
2018-07-11T00:41:20.524Z,99.90
2018-07-11T00:43:49.616Z,99.90
2018-07-11T00:46:19.196Z,99.90
2018-07-11T00:48:49.515Z,99.90
2018-07-11T00:51:18.648Z,99.90
2018-07-11T00:53:47.816Z,99.90
2018-07-11T00:56:17.308Z,99.90
2018-07-11T00:59:06.005Z,99.90
2018-07-11T01:01:36.660Z,99.90
2018-07-11T01:06:34.872Z,99.90
2018-07-11T01:09:04.636Z,99.90
2018-07-11T01:11:36.335Z,99.90
2018-07-11T01:14:05.579Z,99.90
2018-07-11T01:16:34.768Z,99.90
2018-07-11T01:19:09.589Z,99.90
2018-07-11T01:21:39.024Z,99.90
2018-07-11T01:24:08.292Z,99.90
2018-07-11T01:26:39.061Z,99.90
2018-07-11T01:29:08.878Z,99.90
2018-07-11T01:31:38.013Z,99.90
2018-07-11T01:34:07.348Z,99.90
2018-07-11T01:36:36.569Z,99.90
2018-07-11T01:39:05.732Z,99.90
2018-07-11T01:41:35.026Z,99.90
2018-07-11T01:44:04.234Z,99.90
2018-07-11T01:46:45.441Z,99.90
2018-07-11T01:49:14.528Z,99.90
2018-07-11T01:52:02.740Z,99.90
2018-07-11T01:54:31.996Z,99.90
2018-07-11T01:57:01.149Z,99.90
2018-07-11T01:59:36.495Z,99.90
2018-07-11T02:02:06.216Z,99.90
2018-07-11T02:04:39.314Z,99.90
2018-07-11T02:07:10.055Z,99.90
2018-07-11T02:09:39.244Z,99.90
2018-07-11T02:12:08.956Z,99.90
2018-07-11T02:14:38.464Z,99.90
2018-07-11T02:17:07.608Z,99.90
2018-07-11T02:19:38.280Z,99.90
2018-07-11T02:22:07.569Z,99.90
2018-07-11T02:24:36.760Z,99.90
2018-07-11T02:27:06.688Z,99.90
2018-07-11T02:29:35.900Z,99.90
2018-07-11T02:32:05.048Z,99.90
2018-07-11T02:34:35.621Z,99.90
2018-07-11T02:37:05.280Z,99.90
2018-07-11T02:39:34.790Z,99.90
2018-07-11T02:42:04.260Z,99.90
2018-07-11T02:44:33.517Z,99.90
2018-07-11T02:48:08.664Z,99.90
2018-07-11T02:50:37.860Z,99.90
2018-07-11T02:53:07.252Z,99.90
2018-07-11T02:55:36.490Z,99.90
2018-07-11T02:58:06.037Z,99.90
2018-07-11T03:00:35.252Z,99.90
2018-07-11T03:03:04.500Z,99.90
2018-07-11T03:05:33.664Z,99.90
2018-07-11T03:08:03.448Z,99.90
2018-07-11T03:10:32.808Z,99.90
2018-07-11T03:13:02.717Z,99.90
2018-07-11T03:15:31.872Z,99.90
2018-07-11T03:18:01.061Z,99.90
2018-07-11T03:20:30.582Z,99.90
2018-07-11T03:22:59.773Z,99.90
2018-07-11T03:25:29.396Z,99.90
2018-07-11T03:27:58.890Z,99.90
2018-07-11T03:30:28.098Z,99.90
2018-07-11T03:32:57.188Z,99.90
2018-07-11T03:35:26.812Z,99.90
2018-07-11T03:37:56.248Z,99.90
2018-07-11T03:42:54.648Z,99.90
2018-07-11T03:45:23.872Z,99.90
2018-07-11T03:47:53.096Z,99.90
2018-07-11T03:50:22.420Z,99.90
2018-07-11T03:52:51.596Z,99.90
2018-07-11T03:55:20.732Z,99.90
2018-07-11T03:57:50.133Z,99.90
2018-07-11T04:00:19.263Z,99.90
2018-07-11T04:02:48.492Z,99.90
2018-07-11T04:05:17.724Z,99.90
2018-07-11T04:07:46.868Z,99.90
2018-07-11T04:10:16.473Z,99.90
2018-07-11T04:12:45.925Z,99.90
2018-07-11T04:15:15.241Z,99.90
2018-07-11T04:17:44.392Z,99.90
2018-07-11T04:20:13.696Z,99.90
2018-07-11T04:22:43.401Z,99.90
2018-07-11T04:25:12.544Z,99.90
2018-07-11T04:27:42.127Z,99.90
2018-07-11T04:30:11.322Z,99.90
2018-07-11T04:32:40.684Z,99.90
2018-07-11T04:35:10.133Z,99.90
2018-07-11T04:37:39.305Z,99.90
2018-07-11T04:40:08.692Z,99.90
2018-07-11T04:42:38.384Z,99.90
2018-07-11T04:45:07.500Z,99.90
2018-07-11T04:47:37.161Z,99.90
2018-07-11T04:50:06.653Z,99.90
2018-07-11T04:52:35.938Z,99.90
2018-07-11T04:55:05.116Z,99.90
2018-07-11T04:57:34.616Z,99.90
2018-07-11T05:00:03.920Z,99.90
2018-07-11T05:02:33.105Z,99.90
2018-07-11T05:05:03.161Z,99.90
2018-07-11T05:07:32.367Z,99.90
2018-07-11T05:10:01.673Z,99.90
2018-07-11T05:12:31.157Z,99.90
2018-07-11T05:15:00.268Z,99.90
2018-07-11T05:17:29.957Z,99.90
2018-07-11T05:19:59.152Z,99.30
2018-07-11T05:22:28.368Z,99.00
2018-07-11T05:24:57.557Z,98.60
2018-07-11T05:27:27.265Z,97.60
2018-07-11T05:29:56.576Z,98.00
2018-07-11T05:32:25.679Z,96.70
2018-07-11T05:34:54.893Z,96.40
2018-07-11T05:37:24.057Z,96.00
2018-07-11T05:39:53.220Z,95.40
2018-07-11T05:42:22.493Z,96.60
2018-07-11T05:44:51.872Z,96.20
2018-07-11T05:47:21.022Z,96.10
2018-07-11T05:49:50.595Z,95.80
2018-07-11T05:52:19.858Z,94.70
2018-07-11T05:54:49.268Z,94.80
2018-07-11T05:57:19.271Z,94.50
2018-07-11T05:59:48.868Z,94.70
2018-07-11T06:02:18.076Z,95.20
2018-07-11T06:04:47.666Z,95.90
2018-07-11T06:07:17.220Z,96.10
2018-07-11T06:09:46.929Z,95.70
2018-07-11T06:12:16.114Z,94.60
2018-07-11T06:14:46.122Z,95.10
2018-07-11T06:17:15.392Z,94.60
2018-07-11T06:19:46.098Z,94.20
2018-07-11T06:22:15.332Z,94.20
2018-07-11T06:24:44.541Z,93.50
2018-07-11T06:27:14.800Z,93.20
2018-07-11T06:29:45.816Z,94.00
2018-07-11T06:32:15.724Z,93.70
2018-07-11T06:34:44.896Z,93.50
2018-07-11T06:37:15.643Z,93.60
2018-07-11T06:39:46.041Z,93.20
2018-07-11T06:42:17.371Z,92.50
2018-07-11T06:44:46.746Z,91.80
2018-07-11T06:47:17.572Z,91.90
2018-07-11T06:49:48.311Z,92.20
2018-07-11T06:52:18.637Z,92.60
2018-07-11T06:54:49.034Z,92.20
2018-07-11T06:57:18.418Z,90.80
2018-07-11T06:59:48.917Z,90.20
2018-07-11T07:02:20.216Z,89.70
2018-07-11T07:04:51.311Z,90.20
2018-07-11T07:07:22.666Z,90.10
2018-07-11T07:09:52.466Z,90.00
2018-07-11T07:12:23.036Z,90.00
2018-07-11T07:14:53.894Z,91.10
2018-07-11T07:17:24.718Z,90.80
2018-07-11T07:19:55.611Z,90.20
2018-07-11T07:22:26.734Z,90.40
2018-07-11T07:24:58.043Z,90.10
2018-07-11T07:27:27.495Z,89.80
2018-07-11T07:29:57.554Z,90.70
2018-07-11T07:32:27.974Z,91.90
2018-07-11T07:34:59.907Z,91.80
2018-07-11T07:37:29.659Z,92.00
2018-07-11T07:40:00.797Z,92.30
2018-07-11T07:42:30.559Z,91.80
2018-07-11T07:45:00.379Z,90.90
2018-07-11T07:47:35.510Z,90.20
2018-07-11T07:50:05.513Z,89.30
2018-07-11T07:52:34.858Z,84.30
2018-07-11T07:55:05.096Z,84.90
2018-07-11T07:57:36.143Z,84.90
2018-07-11T08:00:08.300Z,83.30
2018-07-11T08:02:38.595Z,85.30
2018-07-11T08:05:10.318Z,86.60
2018-07-11T08:07:40.301Z,87.30
2018-07-11T08:10:10.743Z,86.70
2018-07-11T08:12:40.187Z,88.30
2018-07-11T08:15:10.533Z,90.40
2018-07-11T08:17:40.369Z,90.00
2018-07-11T08:20:10.898Z,88.30
2018-07-11T08:23:25.701Z,88.40
2018-07-11T08:26:12.814Z,87.10
2018-07-11T08:30:01.341Z,85.70
2018-07-11T08:32:56.241Z,86.70
2018-07-11T08:40:56.349Z,85.50
2018-07-11T08:43:50.749Z,85.30
2018-07-11T08:47:33.977Z,86.60
2018-07-11T08:52:27.188Z,86.10
2018-07-11T08:55:19.107Z,85.60
2018-07-11T08:58:06.706Z,84.80
2018-07-11T09:01:11.316Z,84.00
2018-07-11T09:06:05.242Z,83.50
2018-07-11T09:09:01.316Z,84.70
2018-07-11T09:11:46.395Z,85.10
2018-07-11T09:15:32.264Z,85.90
2018-07-11T09:19:32.283Z,87.00
2018-07-11T09:22:51.289Z,83.60
2018-07-11T09:25:20.730Z,83.90
2018-07-11T09:27:49.978Z,81.70
2018-07-11T09:30:19.872Z,83.00
2018-07-11T09:32:49.991Z,82.50
2018-07-11T09:35:20.255Z,76.40
2018-07-11T09:37:49.996Z,65.20
2018-07-11T09:40:21.346Z,54.80
2018-07-11T09:42:50.900Z,62.60
2018-07-11T09:45:21.682Z,60.00
2018-07-11T09:47:51.065Z,63.60
2018-07-11T09:50:21.457Z,67.70
2018-07-11T09:52:50.682Z,69.70
2018-07-11T09:55:20.698Z,71.70
2018-07-11T09:57:51.021Z,73.10
2018-07-11T10:00:25.831Z,73.60
2018-07-11T10:02:56.620Z,75.90
2018-07-11T10:05:26.461Z,76.40
2018-07-11T10:07:56.304Z,77.80
2018-07-11T10:10:26.567Z,77.70
2018-07-11T10:12:55.964Z,76.60
2018-07-11T10:15:26.375Z,77.00
2018-07-11T10:17:56.052Z,75.70
2018-07-11T10:20:25.314Z,75.40
2018-07-11T10:22:54.543Z,75.60
2018-07-11T10:25:23.918Z,75.90
2018-07-11T10:28:27.280Z,78.60
2018-07-11T10:30:57.594Z,76.30
2018-07-11T10:33:27.027Z,74.90
2018-07-11T10:35:56.376Z,73.20
2018-07-11T10:38:26.121Z,71.70
2018-07-11T10:40:56.325Z,71.90
2018-07-11T10:43:26.358Z,70.60
2018-07-11T10:45:55.956Z,68.60
2018-07-11T10:48:25.978Z,67.50
2018-07-11T10:50:58.387Z,68.00
2018-07-11T10:53:28.334Z,69.10
2018-07-11T10:55:57.956Z,68.60
2018-07-11T10:58:27.765Z,65.90
2018-07-11T11:01:05.698Z,62.50
2018-07-11T11:03:28.576Z,61.80
2018-07-11T11:05:57.925Z,60.30
2018-07-11T11:10:59.188Z,56.10
2018-07-11T11:13:28.592Z,54.30
2018-07-11T11:15:58.307Z,54.30
2018-07-11T11:18:28.776Z,55.60
2018-07-11T11:20:58.128Z,54.50
2018-07-11T11:23:28.221Z,52.50
2018-07-11T11:25:58.254Z,46.40
2018-07-11T11:30:58.140Z,38.10
2018-07-11T11:33:27.804Z,38.90
2018-07-11T11:35:57.069Z,36.10
2018-07-11T11:38:28.288Z,36.40
2018-07-11T11:40:57.653Z,38.70
2018-07-11T11:43:27.868Z,40.00
2018-07-11T11:45:57.809Z,43.10
2018-07-11T11:48:27.148Z,42.40
2018-07-11T11:50:56.444Z,43.10
2018-07-11T11:53:26.140Z,46.70
2018-07-11T11:55:56.210Z,48.90
2018-07-11T11:58:25.543Z,49.40
2018-07-11T12:00:55.083Z,49.20
2018-07-11T12:03:24.379Z,48.10
2018-07-11T12:05:54.040Z,44.00
2018-07-11T12:08:25.142Z,44.00
2018-07-11T12:10:55.317Z,45.20
2018-07-11T12:13:25.282Z,45.00
2018-07-11T12:15:55.704Z,43.60
2018-07-11T12:18:26.870Z,44.70
2018-07-11T12:21:00.288Z,42.70
2018-07-11T12:23:31.496Z,44.10
2018-07-11T12:26:09.577Z,41.90
2018-07-11T12:28:39.955Z,40.30
2018-07-11T12:31:11.483Z,40.70
2018-07-11T12:33:40.974Z,39.60
2018-07-11T12:36:11.543Z,40.20
2018-07-11T12:38:40.899Z,39.50
2018-07-11T12:41:10.291Z,39.10
2018-07-11T12:43:40.267Z,36.70
2018-07-11T12:46:09.453Z,37.30
2018-07-11T12:48:44.714Z,36.40
2018-07-11T12:51:16.194Z,35.50
2018-07-11T12:53:47.792Z,36.70
2018-07-11T12:56:18.655Z,36.40
2018-07-11T12:58:48.815Z,35.70
2018-07-11T13:01:18.738Z,34.40
2018-07-11T13:03:50.252Z,35.70
2018-07-11T13:06:21.290Z,33.10
2018-07-11T13:08:52.136Z,34.00
2018-07-11T13:11:22.840Z,32.40
2018-07-11T13:13:53.177Z,32.60
2018-07-11T13:18:53.703Z,33.80
2018-07-11T13:21:24.581Z,34.40
2018-07-11T13:23:54.096Z,36.40
2018-07-11T13:26:24.015Z,37.80
2018-07-11T13:28:54.464Z,40.00
2018-07-11T13:31:24.735Z,41.60
2018-07-11T13:33:57.539Z,42.40
2018-07-11T13:36:27.571Z,43.60
2018-07-11T13:38:57.475Z,42.80
2018-07-11T13:41:28.853Z,41.70
2018-07-11T13:43:59.840Z,43.60
2018-07-11T13:46:30.053Z,42.80
2018-07-11T13:48:59.459Z,42.40
2018-07-11T13:51:29.520Z,42.70
2018-07-11T13:53:59.581Z,43.50
2018-07-11T13:56:30.286Z,42.20
2018-07-11T13:58:59.809Z,42.10
2018-07-11T14:01:29.060Z,41.90
2018-07-11T14:04:01.188Z,42.00
2018-07-11T14:06:31.324Z,41.40
2018-07-11T14:09:02.043Z,42.40
2018-07-11T14:11:31.794Z,42.50
2018-07-11T14:14:01.539Z,43.80
2018-07-11T14:16:31.170Z,45.70
2018-07-11T14:19:00.524Z,44.40
2018-07-11T14:21:29.764Z,44.40
2018-07-11T14:24:00.694Z,44.50
2018-07-11T14:26:31.020Z,45.80
2018-07-11T14:29:02.581Z,44.30
2018-07-11T14:31:33.485Z,44.40
2018-07-11T14:34:05.368Z,44.50
2018-07-11T14:36:35.301Z,45.50
2018-07-11T14:39:06.332Z,43.00
2018-07-11T14:41:37.488Z,42.90
2018-07-11T14:44:06.666Z,44.60
2018-07-11T14:46:36.123Z,44.30
2018-07-11T14:49:05.647Z,43.80
2018-07-11T14:51:35.007Z,44.10
2018-07-11T14:56:33.561Z,43.80
2018-07-11T14:59:02.733Z,43.40
2018-07-11T15:01:32.334Z,44.00
2018-07-11T15:04:01.897Z,45.90
2018-07-11T15:06:31.484Z,46.00
2018-07-11T15:09:00.764Z,45.00
2018-07-11T15:11:30.176Z,44.30
2018-07-11T15:14:00.645Z,45.30
2018-07-11T15:16:30.553Z,45.40
2018-07-11T15:19:00.572Z,46.50
2018-07-11T15:21:30.220Z,47.10
2018-07-11T15:24:01.327Z,48.30
2018-07-11T15:26:30.614Z,48.30
2018-07-11T15:29:00.692Z,47.30
2018-07-11T15:31:30.046Z,47.70
2018-07-11T15:33:59.323Z,48.90
2018-07-11T15:36:28.508Z,49.50
2018-07-11T15:38:59.226Z,49.50
2018-07-11T15:41:28.370Z,48.10
2018-07-11T15:46:27.165Z,46.60
2018-07-11T15:48:56.897Z,45.90
2018-07-11T15:51:26.393Z,45.90
2018-07-11T15:56:25.302Z,46.20
2018-07-11T16:01:32.396Z,48.70
2018-07-11T16:04:01.490Z,49.10
2018-07-11T16:06:31.100Z,49.40
2018-07-11T16:09:04.928Z,49.40
2018-07-11T16:11:35.605Z,50.40
2018-07-11T16:14:05.316Z,51.00
2018-07-11T16:16:34.545Z,51.00
2018-07-11T16:19:04.621Z,51.00
2018-07-11T16:21:33.928Z,51.10
2018-07-11T16:24:03.173Z,51.60
2018-07-11T16:26:32.424Z,50.70
2018-07-11T16:29:01.737Z,50.50
2018-07-11T16:31:32.013Z,51.00
2018-07-11T16:34:01.662Z,50.60
2018-07-11T16:36:30.866Z,51.10
2018-07-11T16:39:00.808Z,51.20
2018-07-11T16:41:30.284Z,53.50
2018-07-11T16:43:59.608Z,53.50
2018-07-11T16:46:28.918Z,54.10
2018-07-11T16:48:58.416Z,53.00
2018-07-11T16:51:27.661Z,52.40
2018-07-11T16:53:57.365Z,53.40
2018-07-11T16:56:27.010Z,53.00
2018-07-11T16:59:01.660Z,52.40
2018-07-11T17:02:08.290Z,52.30
2018-07-11T17:04:40.410Z,52.10
2018-07-11T17:07:14.321Z,52.00
2018-07-11T17:09:46.653Z,53.30
2018-07-11T17:12:15.868Z,54.40
2018-07-11T17:14:46.893Z,54.20
2018-07-11T17:17:19.500Z,53.90
2018-07-11T17:20:01.864Z,54.10
2018-07-11T17:22:34.852Z,55.30
2018-07-11T17:25:06.705Z,55.80
2018-07-11T17:27:36.145Z,55.20
2018-07-11T17:30:06.181Z,55.00
2018-07-11T17:32:35.948Z,54.40
2018-07-11T17:35:05.971Z,54.80
2018-07-11T17:37:36.332Z,55.60
2018-07-11T17:40:14.022Z,55.30
2018-07-11T17:42:45.317Z,54.90
2018-07-11T17:45:19.888Z,55.50
2018-07-11T17:48:11.821Z,55.10
2018-07-11T17:50:42.463Z,56.10
2018-07-11T17:53:19.278Z,56.60
2018-07-11T17:56:11.519Z,56.80
2018-07-11T17:58:55.172Z,56.30
2018-07-11T18:02:02.824Z,56.90
2018-07-11T18:04:48.484Z,57.90
2018-07-11T18:08:02.541Z,58.80
2018-07-11T18:10:43.224Z,58.80
2018-07-11T18:13:25.854Z,57.30
2018-07-11T18:17:09.252Z,57.90
2018-07-11T18:20:24.136Z,59.70
2018-07-11T18:23:06.121Z,59.20
2018-07-11T18:26:25.753Z,64.50
2018-07-11T18:29:16.570Z,65.20
2018-07-11T18:32:56.305Z,67.70
2018-07-11T18:35:42.756Z,68.80
2018-07-11T18:38:22.860Z,69.90
2018-07-11T18:41:10.960Z,70.50
2018-07-11T18:44:15.072Z,70.90
2018-07-11T18:49:43.856Z,72.40
2018-07-11T18:52:21.985Z,73.20
2018-07-11T18:57:05.179Z,74.70
2018-07-11T18:59:51.933Z,75.80
2018-07-11T19:02:44.784Z,76.40
2018-07-11T19:05:26.504Z,77.10
2018-07-11T19:08:40.832Z,78.20
2018-07-11T19:11:21.754Z,78.10
2018-07-11T19:13:55.185Z,77.80
2018-07-11T19:17:08.804Z,76.90
2018-07-11T19:19:48.168Z,77.80
2018-07-11T19:22:56.048Z,79.30
2018-07-11T19:25:39.833Z,79.00
2018-07-11T19:28:22.588Z,79.10
2018-07-11T19:31:09.683Z,79.80
2018-07-11T19:33:51.055Z,80.00
2018-07-11T19:37:18.720Z,80.00
2018-07-11T19:40:13.192Z,80.20
2018-07-11T19:42:54.992Z,80.40
2018-07-11T19:45:41.752Z,83.00
2018-07-11T19:48:38.492Z,83.90
2018-07-11T19:53:32.860Z,83.00
2018-07-11T19:56:19.504Z,82.90
2018-07-11T19:58:48.956Z,85.00
2018-07-11T20:01:18.616Z,85.00
2018-07-11T20:03:47.780Z,85.00
2018-07-11T20:06:16.932Z,85.20
2018-07-11T20:08:46.122Z,85.10
2018-07-11T20:11:15.208Z,85.40
2018-07-11T20:13:44.719Z,85.20
2018-07-11T20:16:14.191Z,84.20
2018-07-11T20:18:43.308Z,84.50
2018-07-11T20:21:12.873Z,84.00
2018-07-11T20:23:42.136Z,85.10
2018-07-11T20:26:11.565Z,84.80
2018-07-11T20:28:40.921Z,84.50
2018-07-11T20:31:10.072Z,84.70
2018-07-11T20:33:39.259Z,84.10
2018-07-11T20:36:08.613Z,83.90
2018-07-11T20:38:38.396Z,83.80
2018-07-11T20:41:08.772Z,83.90
2018-07-11T20:43:38.154Z,83.90
2018-07-11T20:46:08.046Z,82.50
2018-07-11T20:48:39.752Z,83.10
2018-07-11T20:51:09.109Z,82.80
2018-07-11T20:53:38.225Z,82.90
2018-07-11T20:56:07.686Z,82.90
2018-07-11T20:58:53.739Z,82.50
2018-07-11T21:01:40.931Z,80.50
2018-07-11T21:06:31.325Z,80.60
2018-07-11T21:09:19.295Z,80.80
2018-07-11T21:12:28.632Z,82.00
2018-07-11T21:16:16.564Z,81.00
2018-07-11T21:19:02.872Z,81.70
2018-07-11T21:21:33.198Z,81.30
2018-07-11T21:24:03.016Z,80.00
2018-07-11T21:26:32.180Z,81.30
2018-07-11T21:29:01.536Z,81.70
2018-07-11T21:31:31.020Z,81.40
2018-07-11T21:34:01.127Z,81.00
2018-07-11T21:36:30.421Z,81.30
2018-07-11T21:38:59.736Z,81.70
2018-07-11T21:41:28.920Z,81.30
2018-07-11T21:43:58.160Z,81.20
2018-07-11T21:46:27.379Z,80.40
2018-07-11T21:48:56.540Z,78.90
2018-07-11T21:51:26.224Z,80.20
2018-07-11T21:53:55.343Z,78.20
2018-07-11T21:56:25.462Z,78.80
2018-07-11T21:58:54.692Z,81.40
2018-07-11T22:01:24.006Z,79.80
2018-07-11T22:03:53.131Z,79.70
2018-07-11T22:06:22.384Z,78.50
2018-07-11T22:08:51.472Z,78.00
2018-07-11T22:11:20.713Z,77.50
2018-07-11T22:13:50.244Z,78.30
2018-07-11T22:16:19.472Z,77.80
2018-07-11T22:18:48.668Z,77.60
2018-07-11T22:21:16.701Z,77.20
2018-07-11T22:23:44.301Z,76.50
2018-07-11T22:26:11.894Z,76.30
2018-07-11T22:28:39.506Z,76.10
2018-07-11T22:31:07.092Z,76.30
2018-07-11T22:33:34.705Z,76.70
2018-07-11T22:36:02.357Z,76.90
2018-07-11T22:38:30.045Z,77.30
2018-07-11T22:40:57.609Z,77.50
2018-07-11T22:43:25.468Z,77.40
2018-07-11T22:45:53.074Z,77.20
2018-07-11T22:48:20.672Z,77.80
2018-07-11T22:50:48.257Z,78.70
2018-07-11T22:53:15.845Z,80.30
2018-07-11T22:55:43.396Z,81.70
2018-07-11T22:58:11.013Z,83.70
2018-07-11T23:00:38.600Z,87.30
2018-07-11T23:03:06.492Z,90.60
2018-07-11T23:05:34.044Z,91.70
2018-07-11T23:10:29.456Z,92.90
2018-07-11T23:12:57.301Z,95.20
2018-07-11T23:15:24.892Z,96.00
2018-07-11T23:17:52.460Z,96.60
2018-07-11T23:20:20.563Z,96.80
2018-07-11T23:22:48.288Z,97.10
2018-07-11T23:25:16.880Z,97.40
2018-07-11T23:27:44.544Z,98.10
2018-07-11T23:30:12.109Z,98.40
2018-07-11T23:32:39.645Z,98.10
2018-07-11T23:35:08.245Z,99.00
2018-07-11T23:37:35.805Z,98.80
2018-07-11T23:40:03.364Z,99.30
2018-07-11T23:42:31.233Z,99.90
2018-07-11T23:44:58.820Z,99.90
2018-07-11T23:47:26.604Z,99.90
2018-07-11T23:49:54.188Z,99.90
2018-07-11T23:52:21.727Z,99.90
2018-07-11T23:54:49.324Z,99.90
2018-07-11T23:57:17.089Z,99.90
2018-07-11T23:59:45.424Z,99.90
